Time;durP1;ratioP1;P1;durP2;ratioP2;P2;SDS_P1;SDS_P2;PMS_P1;PMS_P2;Temp;Humidity;BMP_temperature;BMP_pressure;BME280_temperature;BME280_humidity;BME280_pressure;Samples;Min_cycle;Max_cycle;Signal;HPM_P1;HPM_P2
2022/09/23 00:01:07;;;;;;;;;;;7.60;99.90;;;;;;5031062;28;20391;-56
2022/09/23 00:03:37;;;;;;;9.80;6.35;;;7.60;99.90;;;;;;5026028;28;19931;-53
2022/09/23 00:06:09;;;;;;;10.88;6.35;;;7.60;99.90;;;;;;5032409;28;20048;-60
2022/09/23 00:08:36;;;;;;;10.27;6.22;;;7.60;99.90;;;;;;5028848;28;20060;-54
2022/09/23 00:11:18;;;;;;;7.75;6.03;;;7.60;99.90;;;;;;5021778;28;20127;-57
2022/09/23 00:13:47;;;;;;;8.43;5.90;;;7.60;99.90;;;;;;5024577;28;20158;-57
2022/09/23 00:16:35;;;;;;;5.18;4.22;;;7.50;99.90;;;;;;5027043;28;20072;-57
2022/09/23 00:19:02;;;;;;;10.70;6.00;;;7.50;99.90;;;;;;5027690;28;20068;-57
2022/09/23 00:21:29;;;;;;;8.32;5.68;;;7.50;99.90;;;;;;5029843;28;20564;-58
2022/09/23 00:23:56;;;;;;;;;;;7.50;99.90;;;;;;5021059;28;20611;-56
2022/09/23 00:26:23;;;;;;;11.35;5.93;;;7.50;99.90;;;;;;5019064;28;19924;-56
2022/09/23 00:28:50;;;;;;;9.23;5.00;;;7.50;99.90;;;;;;5025904;28;20057;-58
2022/09/23 00:31:23;;;;;;;7.68;5.03;;;7.50;99.90;;;;;;5024950;28;20057;-54
2022/09/23 00:34:00;;;;;;;6.55;5.10;;;7.40;99.90;;;;;;5034121;28;20081;-57
2022/09/23 00:36:28;;;;;;;7.60;5.90;;;7.40;99.90;;;;;;5031594;28;20083;-53
2022/09/23 00:38:55;;;;;;;9.52;6.15;;;7.40;99.90;;;;;;5034020;28;20048;-54
2022/09/23 00:41:23;;;;;;;6.53;5.32;;;7.40;99.90;;;;;;5033449;28;20075;-56
2022/09/23 00:43:53;;;;;;;8.30;5.15;;;7.40;99.90;;;;;;5034027;28;20041;-55
2022/09/23 00:46:31;;;;;;;10.52;6.68;;;7.40;99.90;;;;;;5032671;28;20400;-54
2022/09/23 00:49:23;;;;;;;8.70;6.43;;;7.40;99.90;;;;;;5033187;28;20076;-55
2022/09/23 00:51:59;;;;;;;14.35;6.82;;;7.40;99.90;;;;;;5032947;28;20076;-54
2022/09/23 00:54:26;;;;;;;6.65;5.90;;;7.40;99.90;;;;;;5029095;28;20048;-53
2022/09/23 00:56:54;;;;;;;12.60;6.65;;;7.30;99.90;;;;;;5037073;28;20510;-55
2022/09/23 00:59:23;;;;;;;9.88;6.22;;;7.30;99.90;;;;;;5035035;28;20048;-55
2022/09/23 01:01:53;;;;;;;9.13;6.00;;;7.30;99.90;;;;;;5031988;28;20100;-53
2022/09/23 01:04:23;;;;;;;6.60;5.93;;;7.30;99.90;;;;;;5038638;28;20049;-56
2022/09/23 01:06:50;;;;;;;9.38;5.65;;;7.30;99.90;;;;;;5035723;28;20049;-53
2022/09/23 01:09:16;;;;;;;;;;;7.20;99.90;;;;;;5036563;28;20051;-57
2022/09/23 01:12:08;;;;;;;7.35;5.05;;;7.20;99.90;;;;;;5032583;28;20268;-55
2022/09/23 01:14:47;;;;;;;6.05;5.32;;;7.30;99.90;;;;;;5033257;28;20117;-53
2022/09/23 01:17:22;;;;;;;7.43;6.03;;;7.20;99.90;;;;;;5037640;28;20045;-56
2022/09/23 01:20:07;;;;;;;10.30;5.95;;;7.20;99.90;;;;;;5033366;28;20115;-56
2022/09/23 01:23:01;;;;;;;10.48;5.00;;;7.20;99.90;;;;;;5035005;28;20533;-54
2022/09/23 01:26:04;;;;;;;9.70;5.47;;;7.20;99.90;;;;;;5034792;28;20483;-55
2022/09/23 01:28:49;;;;;;;7.32;5.28;;;7.20;99.90;;;;;;5036534;28;20068;-54
2022/09/23 01:31:22;;;;;;;8.93;6.50;;;7.20;99.90;;;;;;5034656;28;20047;-54
2022/09/23 01:34:02;;;;;;;7.95;6.00;;;7.20;99.90;;;;;;5027739;28;20048;-57
2022/09/23 01:36:40;;;;;;;7.82;6.25;;;7.10;99.90;;;;;;5035050;28;20046;-55
2022/09/23 01:39:33;;;;;;;9.38;5.93;;;7.10;99.90;;;;;;5035529;28;20040;-56
2022/09/23 01:42:11;;;;;;;9.38;6.88;;;7.10;99.90;;;;;;5035744;28;20041;-55
2022/09/23 01:44:58;;;;;;;15.35;6.63;;;7.10;99.90;;;;;;5035353;28;20063;-56
2022/09/23 01:47:36;;;;;;;11.32;7.13;;;7.10;99.90;;;;;;5037326;28;20037;-54
2022/09/23 01:50:55;;;;;;;9.77;6.40;;;7.10;99.90;;;;;;5037018;28;20228;-56
2022/09/23 01:52:58;;;;;;;11.20;6.82;;;7.10;99.90;;;;;;5029914;28;20045;-55
2022/09/23 01:55:31;;;;;;;8.00;6.50;;;7.10;99.90;;;;;;5033601;28;20458;-55
2022/09/23 01:58:13;;;;;;;7.57;6.32;;;7.10;99.90;;;;;;5035837;28;20122;-55
2022/09/23 02:00:49;;;;;;;12.52;7.60;;;7.10;99.90;;;;;;5038553;28;20056;-56
2022/09/23 02:03:42;;;;;;;8.10;6.80;;;7.10;99.90;;;;;;5035688;28;20049;-57
2022/09/23 02:06:19;;;;;;;6.63;5.85;;;7.10;99.90;;;;;;5032211;28;20360;-52
2022/09/23 02:08:50;;;;;;;6.28;5.20;;;7.10;99.90;;;;;;5038294;28;20115;-56
2022/09/23 02:11:17;;;;;;;12.60;7.22;;;7.10;99.90;;;;;;5033399;28;20437;-53
2022/09/23 02:13:51;;;;;;;;;;;7.00;99.90;;;;;;5032167;28;20772;-54
2022/09/23 02:16:34;;;;;;;7.80;5.80;;;7.10;99.90;;;;;;5030660;28;19928;-53
2022/09/23 02:19:08;;;;;;;8.13;5.75;;;7.10;99.90;;;;;;5032329;28;20045;-53
2022/09/23 02:21:39;;;;;;;7.28;5.53;;;7.00;99.90;;;;;;5030764;28;20325;-56
2022/09/23 02:24:13;;;;;;;6.57;5.20;;;7.00;99.90;;;;;;5032058;28;20146;-57
2022/09/23 02:27:04;;;;;;;13.38;7.60;;;7.00;99.90;;;;;;5034848;28;20500;-55
2022/09/23 02:29:54;;;;;;;13.63;8.25;;;7.00;99.90;;;;;;5032425;28;20048;-57
2022/09/23 02:32:30;;;;;;;10.18;7.20;;;7.00;99.90;;;;;;5030794;28;20040;-56
2022/09/23 02:34:57;;;;;;;10.75;7.80;;;7.10;99.90;;;;;;5034283;28;20063;-56
2022/09/23 02:37:56;;;;;;;12.60;7.45;;;7.10;99.90;;;;;;5033676;28;20037;-55
2022/09/23 02:40:37;;;;;;;12.93;6.88;;;7.10;99.90;;;;;;5035393;28;20053;-54
2022/09/23 02:43:14;;;;;;;12.80;8.27;;;7.10;99.90;;;;;;5031193;28;20076;-53
2022/09/23 02:45:41;;;;;;;13.23;7.18;;;7.10;99.90;;;;;;5031397;28;20084;-54
2022/09/23 02:48:17;;;;;;;;;;;7.10;99.90;;;;;;5035568;28;20059;-54
2022/09/23 02:50:46;;;;;;;9.60;6.93;;;7.10;99.90;;;;;;5031951;28;19960;-56
2022/09/23 02:53:16;;;;;;;10.85;7.18;;;7.10;99.90;;;;;;5030261;28;20059;-59
2022/09/23 02:55:43;;;;;;;9.40;6.88;;;7.10;99.90;;;;;;5033110;28;20048;-56
2022/09/23 02:58:12;;;;;;;12.27;7.80;;;7.10;99.90;;;;;;5035040;28;20041;-52
2022/09/23 03:01:11;;;;;;;11.25;6.55;;;7.10;99.90;;;;;;5037099;28;20147;-55
2022/09/23 03:03:54;;;;;;;9.20;6.43;;;7.10;99.90;;;;;;5031349;28;20073;-58
2022/09/23 03:06:51;;;;;;;11.27;6.72;;;7.10;99.90;;;;;;5036803;28;20049;-57
2022/09/23 03:09:24;;;;;;;11.38;7.65;;;7.10;99.90;;;;;;5033319;28;20045;-55
2022/09/23 03:11:58;;;;;;;9.05;6.65;;;7.10;99.90;;;;;;5036772;28;20053;-57
2022/09/23 03:14:32;;;;;;;8.93;6.78;;;7.00;99.90;;;;;;5030254;28;20037;-53
2022/09/23 03:17:09;;;;;;;11.75;7.47;;;7.00;99.90;;;;;;5029570;28;20140;-54
2022/09/23 03:19:59;;;;;;;16.50;8.32;;;7.00;99.90;;;;;;5033710;28;20045;-51
2022/09/23 03:22:38;;;;;;;13.43;8.52;;;7.00;99.90;;;;;;5034254;28;20124;-54
2022/09/23 03:25:10;;;;;;;11.32;7.65;;;6.90;99.90;;;;;;5030125;28;20071;-52
2022/09/23 03:27:40;;;;;;;14.63;7.78;;;7.00;99.90;;;;;;5026303;28;20077;-53
2022/09/23 03:30:08;;;;;;;12.02;8.20;;;6.90;99.90;;;;;;5029217;28;20090;-54
2022/09/23 03:32:37;;;;;;;10.43;8.43;;;7.00;99.90;;;;;;5030654;28;20045;-52
2022/09/23 03:35:04;;;;;;;14.70;7.75;;;7.00;99.90;;;;;;5030989;28;20506;-53
2022/09/23 03:37:38;;;;;;;10.65;6.85;;;7.00;99.90;;;;;;5031010;28;20378;-53
2022/09/23 03:40:14;;;;;;;8.65;6.18;;;6.90;99.90;;;;;;5033152;28;20041;-55
2022/09/23 03:42:41;;;;;;;8.57;6.87;;;6.90;99.90;;;;;;5031059;28;20045;-56
2022/09/23 03:45:17;;;;;;;18.05;8.10;;;6.90;99.90;;;;;;5027178;28;20521;-54
2022/09/23 03:47:45;;;;;;;10.40;6.68;;;6.90;99.90;;;;;;5031803;28;20053;-52
2022/09/23 03:50:12;;;;;;;9.52;6.82;;;6.90;99.90;;;;;;5035711;28;20037;-55
2022/09/23 03:52:39;;;;;;;10.48;7.50;;;6.90;99.90;;;;;;5037329;28;20067;-55
2022/09/23 03:55:07;;;;;;;10.25;6.75;;;6.90;99.90;;;;;;5034403;28;20485;-54
2022/09/23 03:57:34;;;;;;;20.27;6.97;;;6.90;99.90;;;;;;5032114;28;20045;-51
2022/09/23 04:00:01;;;;;;;10.27;5.93;;;6.80;99.90;;;;;;5028423;28;20111;-53
2022/09/23 04:02:37;;;;;;;7.88;6.53;;;6.80;99.90;;;;;;5029005;28;20049;-53
2022/09/23 04:05:04;;;;;;;14.07;7.90;;;6.80;99.90;;;;;;5031023;28;20465;-55
2022/09/23 04:07:31;;;;;;;10.40;7.60;;;6.80;99.90;;;;;;5038500;28;20048;-56
2022/09/23 04:09:58;;;;;;;10.80;8.60;;;6.80;99.90;;;;;;5035929;28;20045;-56
2022/09/23 04:12:25;;;;;;;9.18;6.55;;;6.80;99.90;;;;;;5033669;28;20144;-55
2022/09/23 04:14:51;;;;;;;11.40;8.65;;;6.80;99.90;;;;;;5032791;28;20099;-56
2022/09/23 04:17:18;;;;;;;11.73;8.88;;;6.80;99.90;;;;;;5034384;28;20052;-56
2022/09/23 04:19:45;;;;;;;12.93;8.25;;;6.80;99.90;;;;;;5039291;28;20041;-57
2022/09/23 04:22:11;;;;;;;;;;;6.80;99.90;;;;;;5035448;28;20049;-56
2022/09/23 04:24:38;;;;;;;10.82;7.68;;;6.80;99.90;;;;;;5034518;28;19924;-57
2022/09/23 04:27:05;;;;;;;11.48;8.95;;;6.80;99.90;;;;;;5037470;28;20048;-57
2022/09/23 04:29:31;;;;;;;;;;;6.80;99.90;;;;;;5029534;28;20311;-56
2022/09/23 04:31:58;;;;;;;10.70;6.90;;;6.80;99.90;;;;;;5034881;28;19983;-56
2022/09/23 04:34:25;;;;;;;;;;;6.80;99.90;;;;;;5026497;28;20073;-57
2022/09/23 04:36:51;;;;;;;14.35;7.25;;;6.80;99.90;;;;;;5032870;28;19924;-54
2022/09/23 04:39:18;;;;;;;10.48;7.72;;;6.80;99.90;;;;;;5031243;28;20040;-56
2022/09/23 04:41:45;;;;;;;;;;;6.70;99.90;;;;;;5034632;28;20047;-55
2022/09/23 04:44:13;;;;;;;8.13;6.18;;;6.70;99.90;;;;;;5036565;28;19925;-58
2022/09/23 04:46:41;;;;;;;10.40;7.00;;;6.70;99.90;;;;;;5032487;28;20069;-56
2022/09/23 04:49:08;;;;;;;10.45;7.22;;;6.60;99.90;;;;;;5031741;28;20045;-59
2022/09/23 04:51:35;;;;;;;9.38;7.13;;;6.60;99.90;;;;;;5033082;28;20451;-57
2022/09/23 04:54:01;;;;;;;11.43;8.32;;;6.60;99.90;;;;;;5031666;28;20046;-57
2022/09/23 04:56:32;;;;;;;23.88;8.98;;;6.60;99.90;;;;;;5050991;28;20056;-55
2022/09/23 04:59:00;;;;;;;12.35;7.60;;;6.60;99.90;;;;;;5047522;28;20555;-55
2022/09/23 05:01:30;;;;;;;12.48;8.45;;;6.60;99.90;;;;;;5028058;28;20146;-55
2022/09/23 05:04:04;;;;;;;14.18;8.30;;;6.60;99.90;;;;;;5036689;28;20048;-55
2022/09/23 05:06:33;;;;;;;11.73;7.18;;;6.60;99.90;;;;;;5026799;28;20063;-58
2022/09/23 05:09:02;;;;;;;9.60;6.97;;;6.60;99.90;;;;;;5031178;28;20052;-57
2022/09/23 05:11:30;;;;;;;11.23;7.25;;;6.60;99.90;;;;;;5033532;28;20041;-55
2022/09/23 05:13:57;;;;;;;10.93;8.10;;;6.60;99.90;;;;;;5033079;28;20067;-56
2022/09/23 05:16:25;;;;;;;9.77;7.97;;;6.60;99.90;;;;;;5030823;28;20052;-58
2022/09/23 05:18:52;;;;;;;11.88;8.05;;;6.60;99.90;;;;;;5035776;28;20049;-58
2022/09/23 05:21:22;;;;;;;10.38;7.30;;;6.60;99.90;;;;;;5034702;28;20490;-56
2022/09/23 05:23:54;;;;;;;11.38;7.57;;;6.60;99.90;;;;;;5028913;28;20049;-55
2022/09/23 05:26:24;;;;;;;11.80;7.40;;;6.60;99.90;;;;;;5030672;28;20052;-55
2022/09/23 05:28:52;;;;;;;10.43;8.50;;;6.70;99.90;;;;;;5028040;28;20041;-57
2022/09/23 05:31:21;;;;;;;17.73;9.27;;;6.70;99.90;;;;;;5028171;28;20148;-56
2022/09/23 05:33:50;;;;;;;13.90;9.18;;;6.70;99.90;;;;;;5026636;28;20554;-56
2022/09/23 05:36:19;;;;;;;14.60;8.18;;;6.70;99.90;;;;;;5030749;28;20050;-58
2022/09/23 05:38:48;;;;;;;12.30;8.60;;;6.80;99.90;;;;;;5031232;28;20044;-56
2022/09/23 05:41:16;;;;;;;8.93;7.35;;;6.80;99.90;;;;;;5034017;28;20462;-58
2022/09/23 05:43:43;;;;;;;14.63;7.43;;;6.90;99.90;;;;;;5032493;28;20234;-58
2022/09/23 05:46:12;;;;;;;9.85;7.63;;;6.90;99.90;;;;;;5039700;28;20053;-58
2022/09/23 05:48:40;;;;;;;10.65;7.90;;;7.00;99.90;;;;;;5029782;28;20140;-54
2022/09/23 05:51:11;;;;;;;11.73;7.75;;;7.00;99.90;;;;;;5032237;28;20053;-56
2022/09/23 05:53:41;;;;;;;11.57;6.55;;;7.10;99.90;;;;;;5030356;28;20053;-61
2022/09/23 05:56:08;;;;;;;11.07;7.07;;;7.20;99.90;;;;;;5031632;28;20072;-57
2022/09/23 05:58:35;;;;;;;14.10;7.07;;;7.30;99.90;;;;;;5030792;28;20040;-57
2022/09/23 06:01:07;;;;;;;;;;;7.30;99.90;;;;;;5034401;28;20069;-58
2022/09/23 06:03:34;;;;;;;11.07;7.43;;;7.40;99.90;;;;;;5025299;28;20126;-56
2022/09/23 06:06:00;;;;;;;9.23;7.68;;;7.50;99.90;;;;;;5033900;28;20136;-57
2022/09/23 06:08:27;;;;;;;8.88;6.95;;;7.60;99.90;;;;;;5031372;28;20469;-56
2022/09/23 06:10:55;;;;;;;11.38;8.25;;;7.70;99.90;;;;;;5030221;28;20049;-54
2022/09/23 06:13:21;;;;;;;12.65;7.97;;;7.80;99.90;;;;;;5032300;28;20045;-57
2022/09/23 06:15:48;;;;;;;11.27;6.75;;;7.90;99.90;;;;;;5031161;28;20049;-54
2022/09/23 06:18:16;;;;;;;13.10;8.00;;;8.00;99.90;;;;;;5032029;28;20064;-53
2022/09/23 06:20:42;;;;;;;9.45;7.10;;;8.10;99.90;;;;;;5033590;28;20106;-54
2022/09/23 06:23:10;;;;;;;11.40;6.40;;;8.20;99.90;;;;;;5032733;28;20044;-53
2022/09/23 06:25:37;;;;;;;9.30;7.53;;;8.40;99.90;;;;;;5028927;28;20482;-54
2022/09/23 06:28:07;;;;;;;10.13;7.32;;;8.60;99.90;;;;;;5030307;28;20071;-50
2022/09/23 06:30:33;;;;;;;11.07;6.35;;;8.90;99.90;;;;;;5024956;28;20045;-49
2022/09/23 06:33:01;;;;;;;11.40;6.72;;;9.30;99.90;;;;;;5029133;28;20059;-59
2022/09/23 06:35:28;;;;;;;10.43;6.82;;;9.60;99.90;;;;;;5030960;28;20049;-56
2022/09/23 06:37:54;;;;;;;13.05;6.38;;;10.10;99.90;;;;;;5027614;28;20048;-54
2022/09/23 06:40:21;;;;;;;13.02;7.07;;;10.50;99.90;;;;;;5035689;28;20038;-53
2022/09/23 06:42:57;;;;;;;10.63;5.93;;;10.80;99.90;;;;;;5030990;28;20049;-59
2022/09/23 06:45:24;;;;;;;10.13;5.55;;;11.10;99.90;;;;;;5030870;28;20040;-59
2022/09/23 06:47:55;;;;;;;7.70;5.03;;;11.30;99.90;;;;;;5033320;28;20627;-57
2022/09/23 06:50:23;;;;;;;12.70;6.32;;;11.60;99.90;;;;;;5034621;28;20045;-59
2022/09/23 06:52:53;;;;;;;13.10;5.75;;;11.70;99.90;;;;;;5037018;28;20057;-57
2022/09/23 06:55:25;;;;;;;11.00;5.57;;;11.80;99.90;;;;;;5035000;28;20562;-57
2022/09/23 06:57:54;;;;;;;9.35;5.63;;;11.90;99.90;;;;;;5032336;28;20047;-56
2022/09/23 07:00:20;;;;;;;5.82;5.10;;;12.10;99.90;;;;;;5029532;28;20469;-56
2022/09/23 07:02:47;;;;;;;6.47;4.78;;;12.20;99.90;;;;;;5034215;28;20041;-56
2022/09/23 07:05:16;;;;;;;5.53;4.80;;;12.40;99.90;;;;;;5032968;28;20219;-59
2022/09/23 07:07:43;;;;;;;11.73;5.80;;;12.50;99.90;;;;;;5024004;28;20052;-57
2022/09/23 07:10:11;;;;;;;9.15;5.43;;;12.60;99.90;;;;;;5030938;28;20542;-56
2022/09/23 07:12:38;;;;;;;5.45;4.45;;;12.70;99.90;;;;;;5030809;28;20044;-57
2022/09/23 07:15:05;;;;;;;;;;;12.90;99.90;;;;;;5029156;28;20222;-57
2022/09/23 07:17:32;;;;;;;11.93;5.00;;;13.20;99.90;;;;;;5025275;28;19925;-64
2022/09/23 07:19:58;;;;;;;12.63;4.75;;;13.70;99.90;;;;;;5029626;28;20046;-56
2022/09/23 07:22:25;;;;;;;8.75;5.32;;;14.10;99.90;;;;;;5037619;28;20146;-65
2022/09/23 07:24:55;;;;;;;6.80;3.90;;;14.50;99.90;;;;;;5036348;28;20041;-57
2022/09/23 07:27:26;;;;;;;10.90;4.75;;;14.80;99.90;;;;;;5030147;28;20045;-57
2022/09/23 07:29:53;;;;;;;5.18;3.95;;;15.20;99.90;;;;;;5030176;28;20609;-56
2022/09/23 07:32:21;;;;;;;13.65;4.88;;;15.60;99.90;;;;;;5028576;28;20045;-57
2022/09/23 07:34:49;;;;;;;9.52;4.57;;;15.80;99.90;;;;;;5035525;28;20045;-55
2022/09/23 07:37:17;;;;;;;9.50;5.10;;;16.10;99.90;;;;;;5035008;28;20479;-56
2022/09/23 07:39:44;;;;;;;10.65;4.63;;;16.40;99.90;;;;;;5032843;28;20405;-54
2022/09/23 07:42:12;;;;;;;;;;;16.60;99.90;;;;;;5032090;28;20041;-56
2022/09/23 07:44:42;;;;;;;9.65;4.57;;;16.70;99.90;;;;;;5029115;28;19960;-53
2022/09/23 07:47:09;;;;;;;10.38;4.07;;;16.80;99.90;;;;;;5031795;28;20120;-60
2022/09/23 07:49:36;;;;;;;7.30;4.25;;;17.00;99.90;;;;;;5031476;28;20057;-57
2022/09/23 07:52:03;;;;;;;;;;;17.20;99.90;;;;;;5033446;28;20112;-56
2022/09/23 07:54:30;;;;;;;9.67;4.03;;;17.30;99.90;;;;;;5030823;28;20229;-58
2022/09/23 07:56:58;;;;;;;7.45;4.70;;;17.40;99.90;;;;;;5031481;28;20049;-56
2022/09/23 07:59:26;;;;;;;6.63;4.10;;;17.60;99.90;;;;;;5031498;28;20091;-54
2022/09/23 08:01:56;;;;;;;11.23;6.03;;;17.70;99.90;;;;;;5031931;28;20033;-56
2022/09/23 08:04:28;;;;;;;8.95;4.80;;;17.90;99.90;;;;;;5034945;28;20139;-57
2022/09/23 08:06:58;;;;;;;6.22;4.82;;;18.20;99.90;;;;;;5033184;28;20138;-58
2022/09/23 08:09:31;;;;;;;9.93;5.13;;;18.60;99.90;;;;;;5032417;28;20120;-59
2022/09/23 08:11:59;;;;;;;10.65;4.95;;;18.80;99.90;;;;;;5033230;28;20050;-56
2022/09/23 08:14:26;;;;;;;6.93;5.50;;;18.80;99.90;;;;;;5030488;28;20053;-59
2022/09/23 08:16:53;;;;;;;10.65;4.80;;;18.90;99.90;;;;;;5032175;28;20134;-59
2022/09/23 08:19:19;;;;;;;;;;;18.90;99.90;;;;;;5035189;28;20516;-59
2022/09/23 08:21:46;;;;;;;9.10;5.63;;;19.00;99.90;;;;;;5036620;28;19956;-55
2022/09/23 08:24:16;;;;;;;10.63;5.70;;;19.10;99.90;;;;;;5031142;28;20056;-56
2022/09/23 08:26:43;;;;;;;7.60;5.53;;;19.10;99.90;;;;;;5031703;28;20489;-58
2022/09/23 08:29:15;;;;;;;15.05;5.70;;;19.10;99.90;;;;;;5034843;28;20070;-57
2022/09/23 08:31:42;;;;;;;8.23;5.82;;;19.10;99.90;;;;;;5031757;28;20065;-58
2022/09/23 08:34:09;;;;;;;9.07;5.80;;;19.10;99.90;;;;;;5029925;28;20063;-60
2022/09/23 08:36:36;;;;;;;9.23;5.07;;;19.00;99.90;;;;;;5033715;28;20049;-56
2022/09/23 08:39:04;;;;;;;7.90;5.93;;;18.80;99.90;;;;;;5032716;28;20052;-57
2022/09/23 08:42:06;;;;;;;10.98;5.45;;;18.80;99.90;;;;;;5030755;28;20103;-56
2022/09/23 08:44:33;;;;;;;9.35;5.85;;;18.80;99.90;;;;;;5029355;28;20050;-58
2022/09/23 08:47:14;;;;;;;;;;;19.00;99.90;;;;;;5034938;28;20052;-57
2022/09/23 08:49:53;;;;;;;12.35;7.10;;;19.10;99.90;;;;;;5032892;28;20366;-58
2022/09/23 08:52:42;;;;;;;11.18;6.95;;;19.30;99.90;;;;;;5032807;28;20414;-57
2022/09/23 08:55:14;;;;;;;11.18;5.60;;;19.50;99.90;;;;;;5028489;28;20065;-56
2022/09/23 08:58:20;;;;;;;9.70;5.40;;;19.70;99.90;;;;;;5027348;28;20053;-58
2022/09/23 09:01:10;;;;;;;9.32;5.47;;;19.80;99.20;;;;;;5030454;28;20405;-58
2022/09/23 09:03:46;;;;;;;7.18;3.03;;;20.00;96.00;;;;;;5032904;28;20625;-57
2022/09/23 09:06:19;;;;;;;7.60;4.53;;;20.10;86.20;;;;;;5032935;28;20055;-57
2022/09/23 09:08:53;;;;;;;9.45;2.85;;;20.20;87.70;;;;;;5029101;28;20506;-58
2022/09/23 09:11:22;;;;;;;4.78;3.15;;;20.30;71.60;;;;;;5033076;28;20436;-58
2022/09/23 09:14:23;;;;;;;3.78;2.40;;;20.30;69.10;;;;;;5032812;28;20043;-56
2022/09/23 09:17:01;;;;;;;3.38;2.38;;;20.30;71.00;;;;;;5031137;28;20049;-58
2022/09/23 09:19:56;;;;;;;5.25;2.20;;;20.40;68.70;;;;;;5033310;28;20045;-56
2022/09/23 09:22:40;;;;;;;3.95;2.58;;;20.40;68.10;;;;;;5023406;28;20046;-58
2022/09/23 09:25:39;;;;;;;6.95;2.90;;;20.40;68.20;;;;;;5030770;28;20076;-55
2022/09/23 09:28:29;;;;;;;6.05;2.92;;;20.40;68.20;;;;;;5023281;28;20159;-55
2022/09/23 09:31:00;;;;;;;7.32;2.38;;;20.40;69.40;;;;;;5030839;28;20532;-60
2022/09/23 09:33:45;;;;;;;9.68;2.83;;;20.20;68.00;;;;;;5025807;28;20044;-59
2022/09/23 09:36:34;;;;;;;4.90;2.58;;;20.10;70.40;;;;;;5032025;28;20536;-58
2022/09/23 09:39:02;;;;;;;5.60;2.28;;;19.90;70.00;;;;;;5031466;28;20045;-55
2022/09/23 09:41:30;;;;;;;7.50;3.17;;;19.80;70.70;;;;;;5030746;28;20122;-57
2022/09/23 09:43:59;;;;;;;4.93;3.28;;;19.70;69.90;;;;;;5024769;28;20053;-60
2022/09/23 09:47:01;;;;;;;5.65;2.65;;;19.50;72.70;;;;;;5029198;28;20148;-57
2022/09/23 09:49:44;;;;;;;4.97;2.67;;;19.40;72.50;;;;;;5008057;28;20053;-57
2022/09/23 09:52:21;;;;;;;7.22;3.25;;;19.30;74.20;;;;;;5031531;28;20040;-59
2022/09/23 09:54:49;;;;;;;8.43;3.78;;;19.20;74.70;;;;;;5047326;28;20080;-59
2022/09/23 09:57:26;;;;;;;5.28;3.03;;;19.10;76.50;;;;;;5029918;28;20475;-60
2022/09/23 10:00:26;;;;;;;3.58;2.78;;;19.00;78.80;;;;;;5031099;28;20079;-56
2022/09/23 10:03:00;;;;;;;5.35;2.88;;;18.80;81.20;;;;;;5033238;28;20100;-57
2022/09/23 10:05:30;;;;;;;5.72;2.88;;;18.70;81.30;;;;;;5032419;28;20049;-58
2022/09/23 10:08:14;;;;;;;5.00;2.50;;;18.70;85.70;;;;;;5031451;28;20041;-56
2022/09/23 10:11:14;;;;;;;5.28;2.30;;;18.80;85.10;;;;;;5028118;28;20054;-57
2022/09/23 10:14:02;;;;;;;8.95;4.65;;;18.80;84.10;;;;;;5026399;28;20099;-55
2022/09/23 10:16:30;;;;;;;6.35;2.17;;;19.00;80.90;;;;;;5029774;28;20044;-58
2022/09/23 10:19:30;;;;;;;4.43;2.05;;;19.00;77.30;;;;;;5031980;28;20434;-58
2022/09/23 10:22:01;;;;;;;3.05;1.85;;;19.20;77.00;;;;;;5030606;28;20045;-59
2022/09/23 10:24:31;;;;;;;4.40;2.35;;;19.50;76.90;;;;;;5027971;28;20049;-58
2022/09/23 10:27:03;;;;;;;3.38;2.60;;;19.80;82.40;;;;;;5028239;28;20052;-57
2022/09/23 10:29:38;;;;;;;4.35;1.88;;;20.10;69.30;;;;;;5025572;28;20450;-58
2022/09/23 10:32:24;;;;;;;6.43;1.95;;;20.30;68.80;;;;;;5047802;28;20052;-57
2022/09/23 10:35:12;;;;;;;4.35;1.77;;;20.40;64.70;;;;;;5027915;28;20546;-58
2022/09/23 10:37:41;;;;;;;4.28;2.45;;;20.50;65.90;;;;;;5033099;28;20056;-56
2022/09/23 10:46:40;;;;;;;11.88;2.80;;;21.30;65.90;;;;;;5030695;28;20069;-57
2022/09/23 10:49:45;;;;;;;4.90;3.10;;;21.50;64.20;;;;;;5025703;28;20499;-54
2022/09/23 10:52:34;;;;;;;4.47;2.63;;;21.70;63.20;;;;;;5031531;28;20554;-52
2022/09/23 10:55:07;;;;;;;5.60;2.85;;;21.90;61.10;;;;;;5030507;28;20052;-55
2022/09/23 10:57:43;;;;;;;4.45;2.42;;;21.90;59.30;;;;;;5031726;28;20052;-55
2022/09/23 11:00:25;;;;;;;4.93;2.38;;;21.90;59.60;;;;;;5038875;28;20049;-56
2022/09/23 11:03:13;;;;;;;6.45;2.78;;;21.80;59.20;;;;;;5034108;28;20706;-56
2022/09/23 11:06:13;;;;;;;6.82;2.80;;;21.90;61.70;;;;;;5030729;28;20731;-60
2022/09/23 11:09:13;;;;;;;6.05;2.90;;;21.90;63.10;;;;;;5020069;28;20115;-57
2022/09/23 11:11:51;;;;;;;3.03;2.35;;;22.00;61.00;;;;;;5035732;28;20079;-62
2022/09/23 11:14:50;;;;;;;8.45;2.92;;;22.00;59.90;;;;;;5035439;28;20095;-56
2022/09/23 11:17:41;;;;;;;8.15;2.40;;;22.10;59.50;;;;;;5037269;28;20151;-62
2022/09/23 11:20:33;;;;;;;3.75;2.35;;;22.20;63.70;;;;;;5036994;28;20056;-60
2022/09/23 11:23:25;;;;;;;3.22;2.25;;;22.40;61.70;;;;;;5032308;28;20045;-60
2022/09/23 11:26:20;;;;;;;4.95;2.85;;;22.50;64.50;;;;;;5034656;28;20236;-62
2022/09/23 11:28:47;;;;;;;3.30;2.55;;;22.60;61.80;;;;;;5030649;28;20254;-59
2022/09/23 11:31:36;;;;;;;3.88;2.20;;;22.70;59.00;;;;;;5039602;28;20051;-56
2022/09/23 11:34:18;;;;;;;5.03;2.72;;;22.70;58.60;;;;;;5036184;28;20086;-59
2022/09/23 11:36:51;;;;;;;7.18;2.50;;;22.60;58.70;;;;;;5029502;28;20076;-57
2022/09/23 11:39:26;;;;;;;4.18;1.90;;;22.60;59.00;;;;;;5033259;28;20044;-58
2022/09/23 11:41:58;;;;;;;2.78;1.70;;;22.60;60.60;;;;;;5038549;28;20664;-60
2022/09/23 11:44:45;;;;;;;5.32;2.13;;;22.70;59.60;;;;;;5035934;28;20045;-59
2022/09/23 11:47:28;;;;;;;7.57;2.50;;;22.70;57.70;;;;;;5035368;28;20059;-60
2022/09/23 11:50:13;;;;;;;4.90;2.40;;;22.70;58.70;;;;;;5034046;28;20124;-63
2022/09/23 11:52:44;;;;;;;7.43;2.03;;;22.60;57.70;;;;;;5034004;28;20047;-59
2022/09/23 11:55:26;;;;;;;10.02;2.28;;;22.50;58.30;;;;;;5032031;28;20470;-60
2022/09/23 11:57:57;;;;;;;6.88;2.97;;;22.60;60.20;;;;;;5035997;28;20110;-60
2022/09/23 12:00:33;;;;;;;3.58;2.13;;;22.80;60.90;;;;;;5033356;28;20674;-62
2022/09/23 12:03:17;;;;;;;4.50;2.03;;;23.00;58.20;;;;;;5035932;28;20048;-56
2022/09/23 12:05:48;;;;;;;11.48;2.38;;;23.20;59.90;;;;;;5037063;28;20049;-55
2022/09/23 12:08:29;;;;;;;15.35;2.30;;;23.40;59.50;;;;;;5028758;28;20045;-55
2022/09/23 12:11:17;;;;;;;4.85;2.40;;;23.60;57.10;;;;;;5030989;28;20041;-58
2022/09/23 12:14:17;;;;;;;5.05;2.13;;;23.70;55.40;;;;;;5024488;28;20337;-56
2022/09/23 12:17:07;;;;;;;4.25;2.25;;;23.80;54.80;;;;;;5026702;28;20041;-59
2022/09/23 12:19:42;;;;;;;4.72;2.30;;;24.00;55.40;;;;;;5022674;28;20052;-56
2022/09/23 12:22:38;;;;;;;4.18;2.20;;;24.00;55.20;;;;;;5027420;28;20049;-58
2022/09/23 12:25:38;;;;;;;3.08;1.80;;;24.20;56.50;;;;;;5027927;28;20048;-59
2022/09/23 12:28:25;;;;;;;6.22;2.17;;;24.30;55.10;;;;;;5027398;28;20051;-56
2022/09/23 12:30:55;;;;;;;;;;;24.40;53.40;;;;;;5033253;28;20057;-60
2022/09/23 12:33:31;;;;;;;2.45;1.73;;;24.50;53.50;;;;;;5023985;28;20100;-58
2022/09/23 12:36:13;;;;;;;7.72;2.35;;;24.40;55.20;;;;;;5026176;28;20037;-58
2022/09/23 12:38:53;;;;;;;3.10;1.95;;;24.40;55.90;;;;;;5023862;28;20953;-58
2022/09/23 12:41:28;;;;;;;5.63;2.28;;;24.40;56.00;;;;;;5027746;28;20033;-60
2022/09/23 12:44:22;;;;;;;8.05;1.98;;;24.50;55.90;;;;;;5026230;28;20136;-58
2022/09/23 12:47:24;;;;;;;5.25;2.75;;;24.60;54.90;;;;;;5018213;28;20075;-58
2022/09/23 12:49:52;;;;;;;2.92;1.83;;;24.60;53.60;;;;;;5022416;28;20136;-61
2022/09/23 12:52:18;;;;;;;6.40;2.38;;;24.50;54.50;;;;;;5027576;28;20049;-56
2022/09/23 12:54:49;;;;;;;6.50;3.10;;;24.50;55.00;;;;;;5019696;28;20657;-58
2022/09/23 12:57:34;;;;;;;2.20;1.98;;;24.50;55.30;;;;;;5020122;28;20096;-59
2022/09/23 13:00:11;;;;;;;4.03;1.90;;;24.50;56.10;;;;;;5025350;28;20577;-58
2022/09/23 13:02:40;;;;;;;3.67;2.42;;;24.70;56.00;;;;;;5023600;28;20041;-56
2022/09/23 13:07:58;;;;;;;14.27;2.72;;;24.80;53.30;;;;;;5021898;28;20974;-59
2022/09/23 13:10:32;;;;;;;5.57;2.08;;;24.60;53.10;;;;;;5019849;28;20895;-58
2022/09/23 13:13:01;;;;;;;3.33;2.40;;;24.20;53.80;;;;;;5024811;28;20049;-58
2022/09/23 13:15:31;;;;;;;7.07;2.40;;;24.10;54.30;;;;;;5024140;28;20123;-57
2022/09/23 13:18:17;;;;;;;2.83;1.60;;;24.00;54.80;;;;;;5028063;28;20053;-61
2022/09/23 13:20:45;;;;;;;4.90;1.98;;;23.90;54.40;;;;;;5026440;28;20048;-60
2022/09/23 13:23:19;;;;;;;4.55;2.92;;;23.80;55.20;;;;;;5021079;28;20041;-60
2022/09/23 13:25:46;;;;;;;6.72;2.45;;;23.80;55.50;;;;;;5016236;28;20041;-59
2022/09/23 13:28:37;;;;;;;7.93;2.47;;;23.80;55.40;;;;;;5024782;28;20252;-54
2022/09/23 13:31:12;;;;;;;9.02;2.28;;;23.80;54.80;;;;;;5027248;28;20036;-56
2022/09/23 13:33:44;;;;;;;5.32;1.95;;;23.80;54.40;;;;;;5026335;28;20051;-56
2022/09/23 13:36:16;;;;;;;5.70;2.28;;;23.80;54.90;;;;;;5027110;28;20388;-57
2022/09/23 13:38:45;;;;;;;3.55;2.28;;;23.70;55.00;;;;;;5017143;28;20042;-58
2022/09/23 13:41:12;;;;;;;6.97;1.98;;;23.80;53.70;;;;;;5018779;28;20052;-58